Sepulveda, California
Current Conditions -  °F | °C
As of 9:53 PM on Monday 20 Oct 2014 (Local Time) from KBUR Reporting Station
Clear Clear  
Wind Chill: 19°   Ceiling: Unl
Heat Index: 19°   Visibility: 10mi
Dew Point: 16°   Wind: 6mph
Humidity: 81%   Direction: 120°ESE
Pressure: 29.9"   Gusts: NA
Location:  34.1618°N, 118.281°W
Report Text: KBUR 210453Z 12005KT 10SM CLR 19/16 A2990 RMK AO2 SLP116 T01890156
Loading
Personal Weather Stations






























Interactive Weather Map
Tropical Storm Tracking
New forecast layout! Learn more

10-Day Weather Forecast

Advertisements
Track Severe Weather on mobile